Terminal Aerodrome Forecast
Issued by NWS

Home | Current Version | Previous Version | Text Only | Print | Product List | Glossary On
Versions: 1 2 3 4 5 6 7 8 9 10 11 12
000
FTUS45 KTFX 242300
TAFCTB
TAF
KCTB 242320Z 2500/2524 25015G25KT P6SM BKN100
     FM250200 25010KT P6SM BKN100
     FM251200 09005KT P6SM BKN060
     FM251800 15010KT P6SM BKN100=

USA.gov is the U.S. government's official web portal to all federal, state and local government web resources and services.